Masthead Graphic

Historical weather data from Belfast International Airport

The table below shows the weather reports for the last 24 hours taken from the METAR weather bulletins issued by Belfast International Airport. Readings should be at 30 min intervals however they are not always available

Date Time Pressure mb Temp. Wind Kts Wind Dir. Gusts Kts Conditions
21/05/2019 10:50:00 1020 13 5 240 mostly cloudy
21/05/2019 10:20:00 1020 13 6 270 scattered clouds
21/05/2019 09:50:00 1020 13 6 260 scattered clouds
21/05/2019 09:20:00 1020 12 6 260 scattered clouds
21/05/2019 08:50:00 1020 11 6 260 scattered clouds
21/05/2019 08:20:00 1020 11 5 270 scattered clouds
21/05/2019 07:50:00 1020 11 5 290 partly cloudy
21/05/2019 07:20:00 1020 10 5 280 partly cloudy
21/05/2019 06:50:00 1020 9 4 240 partly cloudy
21/05/2019 06:20:00 1020 8 3 200 partly cloudy
21/05/2019 05:50:00 1020 7 3 210 mostly cloudy
21/05/2019 05:20:00 1019 6 2 Variable mostly cloudy
21/05/2019 04:50:00 1019 5 2 180 mostly cloudy
21/05/2019 04:20:00 1019 3 3 150 partly cloudy
fog
21/05/2019 03:20:00 1019 3 2 Variable mostly cloudy
21/05/2019 02:50:00 1019 6 2 230 clear skies
21/05/2019 02:20:00 1019 6 3 250 scattered clouds
21/05/2019 01:50:00 1019 7 5 270 mostly cloudy
21/05/2019 01:20:00 1019 7 4 270 mostly cloudy
21/05/2019 00:50:00 1019 7 3 300 mostly cloudy
21/05/2019 00:20:00 1018 6 2 310 mostly cloudy
20/05/2019 23:50:00 1018 6 2 Variable clear skies
20/05/2019 23:20:00 1018 6 4 300 clear skies
20/05/2019 22:20:00 1018 8 4 350 clear skies
20/05/2019 21:50:00 1018 8 4 350 clear skies
Next Last